sensor_id;sensor_type;location;lat;lon;timestamp;P1;durP1;ratioP1;P2;durP2;ratioP2
36855;SDS011;22788;51.434;6.786;2022-12-28T00:01:34;2.97;;;1.73;;
36855;SDS011;22788;51.434;6.786;2022-12-28T00:04:00;4.03;;;1.90;;
36855;SDS011;22788;51.434;6.786;2022-12-28T00:06:28;2.77;;;1.70;;
36855;SDS011;22788;51.434;6.786;2022-12-28T00:08:54;3.33;;;1.70;;
36855;SDS011;22788;51.434;6.786;2022-12-28T00:11:21;4.60;;;1.87;;
36855;SDS011;22788;51.434;6.786;2022-12-28T00:13:49;3.00;;;1.70;;
36855;SDS011;22788;51.434;6.786;2022-12-28T00:16:19;4.67;;;1.70;;
36855;SDS011;22788;51.434;6.786;2022-12-28T00:18:48;5.17;;;1.90;;
36855;SDS011;22788;51.434;6.786;2022-12-28T00:21:14;1.93;;;1.53;;
36855;SDS011;22788;51.434;6.786;2022-12-28T00:23:40;4.57;;;1.97;;
36855;SDS011;22788;51.434;6.786;2022-12-28T00:26:06;3.83;;;1.87;;
36855;SDS011;22788;51.434;6.786;2022-12-28T00:28:34;4.60;;;1.80;;
36855;SDS011;22788;51.434;6.786;2022-12-28T00:31:00;3.63;;;1.77;;
36855;SDS011;22788;51.434;6.786;2022-12-28T00:33:28;2.00;;;1.80;;
36855;SDS011;22788;51.434;6.786;2022-12-28T00:35:55;4.90;;;2.20;;
36855;SDS011;22788;51.434;6.786;2022-12-28T00:38:22;5.20;;;2.03;;
36855;SDS011;22788;51.434;6.786;2022-12-28T00:40:48;2.87;;;1.80;;
36855;SDS011;22788;51.434;6.786;2022-12-28T00:43:15;2.97;;;1.50;;
36855;SDS011;22788;51.434;6.786;2022-12-28T00:45:42;4.27;;;1.77;;
36855;SDS011;22788;51.434;6.786;2022-12-28T00:48:08;1.77;;;1.60;;
36855;SDS011;22788;51.434;6.786;2022-12-28T00:50:36;8.43;;;1.90;;
36855;SDS011;22788;51.434;6.786;2022-12-28T00:53:02;4.30;;;1.83;;
36855;SDS011;22788;51.434;6.786;2022-12-28T00:55:28;3.30;;;1.57;;
36855;SDS011;22788;51.434;6.786;2022-12-28T00:57:57;3.30;;;1.80;;
36855;SDS011;22788;51.434;6.786;2022-12-28T01:00:23;3.03;;;1.47;;
36855;SDS011;22788;51.434;6.786;2022-12-28T01:02:49;2.17;;;1.60;;
36855;SDS011;22788;51.434;6.786;2022-12-28T01:05:15;4.67;;;1.80;;
36855;SDS011;22788;51.434;6.786;2022-12-28T01:07:42;4.27;;;1.87;;
36855;SDS011;22788;51.434;6.786;2022-12-28T01:10:08;3.57;;;1.57;;
36855;SDS011;22788;51.434;6.786;2022-12-28T01:12:35;4.20;;;1.73;;
36855;SDS011;22788;51.434;6.786;2022-12-28T01:15:01;2.93;;;1.67;;
36855;SDS011;22788;51.434;6.786;2022-12-28T01:17:27;2.27;;;1.77;;
36855;SDS011;22788;51.434;6.786;2022-12-28T01:19:53;4.53;;;1.70;;
36855;SDS011;22788;51.434;6.786;2022-12-28T01:22:19;1.70;;;1.53;;
36855;SDS011;22788;51.434;6.786;2022-12-28T01:24:47;2.37;;;1.73;;
36855;SDS011;22788;51.434;6.786;2022-12-28T01:27:13;2.30;;;1.50;;
36855;SDS011;22788;51.434;6.786;2022-12-28T01:29:39;4.60;;;1.67;;
36855;SDS011;22788;51.434;6.786;2022-12-28T01:32:05;3.67;;;1.60;;
36855;SDS011;22788;51.434;6.786;2022-12-28T01:34:31;5.03;;;2.30;;
36855;SDS011;22788;51.434;6.786;2022-12-28T01:36:57;3.87;;;1.93;;
36855;SDS011;22788;51.434;6.786;2022-12-28T01:39:23;2.53;;;1.63;;
36855;SDS011;22788;51.434;6.786;2022-12-28T01:41:50;4.00;;;1.60;;
36855;SDS011;22788;51.434;6.786;2022-12-28T01:47:14;2.10;;;1.70;;
36855;SDS011;22788;51.434;6.786;2022-12-28T01:49:44;3.27;;;1.50;;
36855;SDS011;22788;51.434;6.786;2022-12-28T01:52:15;4.13;;;1.93;;
36855;SDS011;22788;51.434;6.786;2022-12-28T01:54:47;2.53;;;1.53;;
36855;SDS011;22788;51.434;6.786;2022-12-28T01:57:16;2.63;;;1.50;;
36855;SDS011;22788;51.434;6.786;2022-12-28T01:59:46;2.47;;;1.70;;
36855;SDS011;22788;51.434;6.786;2022-12-28T02:02:18;4.17;;;2.03;;
36855;SDS011;22788;51.434;6.786;2022-12-28T02:04:45;2.33;;;1.73;;
36855;SDS011;22788;51.434;6.786;2022-12-28T02:07:12;2.10;;;1.43;;
36855;SDS011;22788;51.434;6.786;2022-12-28T02:09:47;3.03;;;2.03;;
36855;SDS011;22788;51.434;6.786;2022-12-28T02:12:14;2.60;;;1.60;;
36855;SDS011;22788;51.434;6.786;2022-12-28T02:14:42;2.57;;;1.30;;
36855;SDS011;22788;51.434;6.786;2022-12-28T02:17:10;3.27;;;2.10;;
36855;SDS011;22788;51.434;6.786;2022-12-28T02:19:39;4.33;;;2.10;;
36855;SDS011;22788;51.434;6.786;2022-12-28T02:22:13;3.23;;;1.63;;
36855;SDS011;22788;51.434;6.786;2022-12-28T02:25:04;5.30;;;1.73;;
36855;SDS011;22788;51.434;6.786;2022-12-28T02:27:58;4.10;;;1.90;;
36855;SDS011;22788;51.434;6.786;2022-12-28T02:30:36;3.97;;;1.70;;
36855;SDS011;22788;51.434;6.786;2022-12-28T02:33:10;1.83;;;1.37;;
36855;SDS011;22788;51.434;6.786;2022-12-28T02:35:43;4.13;;;1.70;;
36855;SDS011;22788;51.434;6.786;2022-12-28T02:38:13;2.17;;;1.60;;
36855;SDS011;22788;51.434;6.786;2022-12-28T02:40:43;2.97;;;1.90;;
36855;SDS011;22788;51.434;6.786;2022-12-28T02:43:12;2.03;;;1.73;;
36855;SDS011;22788;51.434;6.786;2022-12-28T02:45:41;5.47;;;1.60;;
36855;SDS011;22788;51.434;6.786;2022-12-28T02:48:08;2.70;;;1.40;;
36855;SDS011;22788;51.434;6.786;2022-12-28T02:50:36;3.97;;;1.80;;
36855;SDS011;22788;51.434;6.786;2022-12-28T02:56:07;5.50;;;1.50;;
36855;SDS011;22788;51.434;6.786;2022-12-28T02:58:53;2.27;;;1.80;;
36855;SDS011;22788;51.434;6.786;2022-12-28T03:01:43;3.03;;;1.73;;
36855;SDS011;22788;51.434;6.786;2022-12-28T03:04:44;2.43;;;1.90;;
36855;SDS011;22788;51.434;6.786;2022-12-28T03:07:26;2.80;;;1.50;;
36855;SDS011;22788;51.434;6.786;2022-12-28T03:10:01;2.67;;;1.53;;
36855;SDS011;22788;51.434;6.786;2022-12-28T03:12:35;1.77;;;1.33;;
36855;SDS011;22788;51.434;6.786;2022-12-28T03:15:07;2.80;;;1.63;;
36855;SDS011;22788;51.434;6.786;2022-12-28T03:17:39;2.60;;;1.67;;
36855;SDS011;22788;51.434;6.786;2022-12-28T03:20:09;2.33;;;1.23;;
36855;SDS011;22788;51.434;6.786;2022-12-28T03:22:40;1.70;;;1.60;;
36855;SDS011;22788;51.434;6.786;2022-12-28T03:25:09;2.47;;;1.60;;
36855;SDS011;22788;51.434;6.786;2022-12-28T03:27:38;3.67;;;1.70;;
36855;SDS011;22788;51.434;6.786;2022-12-28T03:30:07;3.43;;;1.40;;
36855;SDS011;22788;51.434;6.786;2022-12-28T03:32:36;3.27;;;1.70;;
36855;SDS011;22788;51.434;6.786;2022-12-28T03:35:04;2.13;;;1.67;;
36855;SDS011;22788;51.434;6.786;2022-12-28T03:37:31;1.73;;;1.60;;
36855;SDS011;22788;51.434;6.786;2022-12-28T03:40:04;2.40;;;1.60;;
36855;SDS011;22788;51.434;6.786;2022-12-28T03:42:34;2.77;;;1.63;;
36855;SDS011;22788;51.434;6.786;2022-12-28T03:45:05;1.40;;;1.30;;
36855;SDS011;22788;51.434;6.786;2022-12-28T03:47:36;2.57;;;1.67;;
36855;SDS011;22788;51.434;6.786;2022-12-28T03:50:06;3.67;;;1.63;;
36855;SDS011;22788;51.434;6.786;2022-12-28T03:52:33;2.27;;;2.07;;
36855;SDS011;22788;51.434;6.786;2022-12-28T03:54:59;2.20;;;1.67;;
36855;SDS011;22788;51.434;6.786;2022-12-28T03:57:25;2.90;;;1.80;;
36855;SDS011;22788;51.434;6.786;2022-12-28T03:59:51;3.83;;;1.57;;
36855;SDS011;22788;51.434;6.786;2022-12-28T04:02:17;3.00;;;1.33;;
36855;SDS011;22788;51.434;6.786;2022-12-28T04:04:43;2.73;;;1.40;;
36855;SDS011;22788;51.434;6.786;2022-12-28T04:07:11;2.77;;;1.40;;
36855;SDS011;22788;51.434;6.786;2022-12-28T04:09:37;2.30;;;1.40;;
36855;SDS011;22788;51.434;6.786;2022-12-28T04:12:03;3.03;;;1.70;;
36855;SDS011;22788;51.434;6.786;2022-12-28T04:14:30;1.90;;;1.43;;
36855;SDS011;22788;51.434;6.786;2022-12-28T04:16:56;2.67;;;1.50;;
36855;SDS011;22788;51.434;6.786;2022-12-28T04:19:22;1.70;;;1.60;;
36855;SDS011;22788;51.434;6.786;2022-12-28T04:21:48;5.17;;;1.70;;
36855;SDS011;22788;51.434;6.786;2022-12-28T04:24:15;1.50;;;1.40;;
36855;SDS011;22788;51.434;6.786;2022-12-28T04:26:41;4.17;;;1.40;;
36855;SDS011;22788;51.434;6.786;2022-12-28T04:29:07;2.80;;;1.80;;
36855;SDS011;22788;51.434;6.786;2022-12-28T04:31:33;2.83;;;1.53;;
36855;SDS011;22788;51.434;6.786;2022-12-28T04:33:59;2.60;;;1.43;;
36855;SDS011;22788;51.434;6.786;2022-12-28T04:36:25;1.37;;;1.27;;
36855;SDS011;22788;51.434;6.786;2022-12-28T04:38:51;4.43;;;1.70;;
36855;SDS011;22788;51.434;6.786;2022-12-28T04:41:19;2.90;;;1.43;;
36855;SDS011;22788;51.434;6.786;2022-12-28T04:43:45;3.00;;;1.63;;
36855;SDS011;22788;51.434;6.786;2022-12-28T04:46:11;2.67;;;1.70;;
36855;SDS011;22788;51.434;6.786;2022-12-28T04:48:39;1.93;;;1.60;;
36855;SDS011;22788;51.434;6.786;2022-12-28T04:51:05;1.90;;;1.50;;
36855;SDS011;22788;51.434;6.786;2022-12-28T04:53:35;5.23;;;1.73;;
36855;SDS011;22788;51.434;6.786;2022-12-28T04:56:02;2.60;;;1.57;;
36855;SDS011;22788;51.434;6.786;2022-12-28T04:58:29;4.70;;;2.07;;
36855;SDS011;22788;51.434;6.786;2022-12-28T05:01:00;3.37;;;1.70;;
36855;SDS011;22788;51.434;6.786;2022-12-28T05:03:26;2.03;;;1.50;;
36855;SDS011;22788;51.434;6.786;2022-12-28T05:05:52;2.80;;;1.97;;
36855;SDS011;22788;51.434;6.786;2022-12-28T05:08:18;2.70;;;1.90;;
36855;SDS011;22788;51.434;6.786;2022-12-28T05:10:44;1.50;;;1.40;;
36855;SDS011;22788;51.434;6.786;2022-12-28T05:13:11;2.17;;;1.70;;
36855;SDS011;22788;51.434;6.786;2022-12-28T05:15:38;2.40;;;2.00;;
36855;SDS011;22788;51.434;6.786;2022-12-28T05:18:04;3.67;;;2.23;;
36855;SDS011;22788;51.434;6.786;2022-12-28T05:20:30;2.80;;;1.80;;
36855;SDS011;22788;51.434;6.786;2022-12-28T05:22:56;2.80;;;2.10;;
36855;SDS011;22788;51.434;6.786;2022-12-28T05:25:22;3.10;;;1.97;;
36855;SDS011;22788;51.434;6.786;2022-12-28T05:27:48;4.20;;;2.23;;
36855;SDS011;22788;51.434;6.786;2022-12-28T05:30:14;3.03;;;2.00;;
36855;SDS011;22788;51.434;6.786;2022-12-28T05:32:42;3.67;;;2.37;;
36855;SDS011;22788;51.434;6.786;2022-12-28T05:35:08;5.07;;;2.60;;
36855;SDS011;22788;51.434;6.786;2022-12-28T05:37:34;2.73;;;1.80;;
36855;SDS011;22788;51.434;6.786;2022-12-28T05:40:00;4.33;;;3.10;;
36855;SDS011;22788;51.434;6.786;2022-12-28T05:42:26;7.03;;;3.57;;
36855;SDS011;22788;51.434;6.786;2022-12-28T05:44:52;4.00;;;2.83;;
36855;SDS011;22788;51.434;6.786;2022-12-28T05:47:18;4.40;;;2.20;;
36855;SDS011;22788;51.434;6.786;2022-12-28T05:49:46;5.63;;;3.00;;
36855;SDS011;22788;51.434;6.786;2022-12-28T05:52:15;5.47;;;2.47;;
36855;SDS011;22788;51.434;6.786;2022-12-28T05:54:41;14.53;;;3.77;;
36855;SDS011;22788;51.434;6.786;2022-12-28T05:57:08;4.30;;;2.47;;
36855;SDS011;22788;51.434;6.786;2022-12-28T05:59:34;4.53;;;2.77;;
36855;SDS011;22788;51.434;6.786;2022-12-28T06:02:00;4.63;;;2.57;;
36855;SDS011;22788;51.434;6.786;2022-12-28T06:04:26;5.13;;;2.57;;
36855;SDS011;22788;51.434;6.786;2022-12-28T06:06:53;4.60;;;2.73;;
36855;SDS011;22788;51.434;6.786;2022-12-28T06:09:19;3.37;;;2.20;;
36855;SDS011;22788;51.434;6.786;2022-12-28T06:11:45;6.37;;;2.93;;
36855;SDS011;22788;51.434;6.786;2022-12-28T06:14:11;3.90;;;2.43;;
36855;SDS011;22788;51.434;6.786;2022-12-28T06:16:38;5.30;;;3.20;;
36855;SDS011;22788;51.434;6.786;2022-12-28T06:19:06;9.33;;;3.37;;
36855;SDS011;22788;51.434;6.786;2022-12-28T06:21:34;5.50;;;3.30;;
36855;SDS011;22788;51.434;6.786;2022-12-28T06:24:04;3.60;;;2.83;;
36855;SDS011;22788;51.434;6.786;2022-12-28T06:26:31;6.23;;;4.20;;
36855;SDS011;22788;51.434;6.786;2022-12-28T06:28:59;5.63;;;3.47;;
36855;SDS011;22788;51.434;6.786;2022-12-28T06:31:26;6.23;;;3.17;;
36855;SDS011;22788;51.434;6.786;2022-12-28T06:33:54;5.43;;;2.57;;
36855;SDS011;22788;51.434;6.786;2022-12-28T06:36:22;2.73;;;2.30;;
36855;SDS011;22788;51.434;6.786;2022-12-28T06:38:49;6.20;;;2.33;;
36855;SDS011;22788;51.434;6.786;2022-12-28T06:41:19;6.27;;;2.40;;
36855;SDS011;22788;51.434;6.786;2022-12-28T06:43:46;3.47;;;2.67;;
36855;SDS011;22788;51.434;6.786;2022-12-28T06:46:13;4.20;;;1.87;;
36855;SDS011;22788;51.434;6.786;2022-12-28T06:48:40;4.43;;;1.97;;
36855;SDS011;22788;51.434;6.786;2022-12-28T06:51:07;2.97;;;2.30;;
36855;SDS011;22788;51.434;6.786;2022-12-28T06:53:36;2.63;;;2.43;;
36855;SDS011;22788;51.434;6.786;2022-12-28T06:56:03;2.20;;;1.83;;
36855;SDS011;22788;51.434;6.786;2022-12-28T06:58:32;4.73;;;2.13;;
36855;SDS011;22788;51.434;6.786;2022-12-28T07:01:04;4.80;;;2.10;;
36855;SDS011;22788;51.434;6.786;2022-12-28T07:03:31;2.63;;;2.33;;
36855;SDS011;22788;51.434;6.786;2022-12-28T07:05:58;1.63;;;1.50;;
36855;SDS011;22788;51.434;6.786;2022-12-28T07:08:24;3.00;;;2.33;;
36855;SDS011;22788;51.434;6.786;2022-12-28T07:10:50;2.03;;;1.80;;
36855;SDS011;22788;51.434;6.786;2022-12-28T07:13:16;3.53;;;2.23;;
36855;SDS011;22788;51.434;6.786;2022-12-28T07:15:44;6.13;;;1.93;;
36855;SDS011;22788;51.434;6.786;2022-12-28T07:18:10;2.77;;;2.17;;
36855;SDS011;22788;51.434;6.786;2022-12-28T07:20:36;2.57;;;2.10;;
36855;SDS011;22788;51.434;6.786;2022-12-28T07:23:02;4.40;;;1.93;;
36855;SDS011;22788;51.434;6.786;2022-12-28T07:25:28;3.43;;;2.60;;
36855;SDS011;22788;51.434;6.786;2022-12-28T07:27:54;3.90;;;2.90;;
36855;SDS011;22788;51.434;6.786;2022-12-28T07:30:20;5.47;;;2.93;;
36855;SDS011;22788;51.434;6.786;2022-12-28T07:32:48;6.00;;;2.70;;
36855;SDS011;22788;51.434;6.786;2022-12-28T07:35:14;5.67;;;3.13;;
36855;SDS011;22788;51.434;6.786;2022-12-28T07:37:40;6.47;;;3.37;;
36855;SDS011;22788;51.434;6.786;2022-12-28T07:40:06;4.33;;;3.00;;
36855;SDS011;22788;51.434;6.786;2022-12-28T07:42:33;4.53;;;3.27;;
36855;SDS011;22788;51.434;6.786;2022-12-28T07:44:59;4.70;;;3.53;;
36855;SDS011;22788;51.434;6.786;2022-12-28T07:47:25;8.37;;;3.03;;
36855;SDS011;22788;51.434;6.786;2022-12-28T07:49:53;5.27;;;2.90;;
36855;SDS011;22788;51.434;6.786;2022-12-28T07:52:19;7.17;;;3.00;;
36855;SDS011;22788;51.434;6.786;2022-12-28T07:54:45;6.03;;;2.70;;
36855;SDS011;22788;51.434;6.786;2022-12-28T07:57:11;3.97;;;2.50;;
36855;SDS011;22788;51.434;6.786;2022-12-28T07:59:37;4.83;;;2.90;;
36855;SDS011;22788;51.434;6.786;2022-12-28T08:02:03;5.80;;;3.10;;
36855;SDS011;22788;51.434;6.786;2022-12-28T08:04:29;6.07;;;3.17;;
36855;SDS011;22788;51.434;6.786;2022-12-28T08:06:56;7.40;;;3.47;;
36855;SDS011;22788;51.434;6.786;2022-12-28T08:09:22;5.23;;;2.87;;
36855;SDS011;22788;51.434;6.786;2022-12-28T08:11:48;6.23;;;3.33;;
36855;SDS011;22788;51.434;6.786;2022-12-28T08:14:14;3.67;;;2.60;;
36855;SDS011;22788;51.434;6.786;2022-12-28T08:16:43;5.10;;;2.97;;
36855;SDS011;22788;51.434;6.786;2022-12-28T08:19:09;6.57;;;3.00;;
36855;SDS011;22788;51.434;6.786;2022-12-28T08:21:36;4.80;;;3.23;;
36855;SDS011;22788;51.434;6.786;2022-12-28T08:24:06;4.90;;;2.97;;
36855;SDS011;22788;51.434;6.786;2022-12-28T08:26:33;6.37;;;3.17;;
36855;SDS011;22788;51.434;6.786;2022-12-28T08:29:01;3.70;;;2.50;;
36855;SDS011;22788;51.434;6.786;2022-12-28T08:31:30;5.23;;;3.67;;
36855;SDS011;22788;51.434;6.786;2022-12-28T08:33:58;7.47;;;3.80;;
36855;SDS011;22788;51.434;6.786;2022-12-28T08:36:25;5.37;;;3.23;;
36855;SDS011;22788;51.434;6.786;2022-12-28T08:38:51;6.00;;;2.90;;
36855;SDS011;22788;51.434;6.786;2022-12-28T08:41:19;6.33;;;4.20;;
36855;SDS011;22788;51.434;6.786;2022-12-28T08:43:47;8.47;;;3.50;;
36855;SDS011;22788;51.434;6.786;2022-12-28T08:46:14;5.43;;;2.60;;
36855;SDS011;22788;51.434;6.786;2022-12-28T08:48:42;3.70;;;2.83;;
36855;SDS011;22788;51.434;6.786;2022-12-28T08:51:10;3.60;;;2.20;;
36855;SDS011;22788;51.434;6.786;2022-12-28T08:53:38;2.63;;;2.30;;
36855;SDS011;22788;51.434;6.786;2022-12-28T08:56:06;3.40;;;2.67;;
36855;SDS011;22788;51.434;6.786;2022-12-28T08:58:34;3.33;;;2.53;;
36855;SDS011;22788;51.434;6.786;2022-12-28T09:01:05;3.90;;;2.60;;
36855;SDS011;22788;51.434;6.786;2022-12-28T09:03:33;6.87;;;2.90;;
36855;SDS011;22788;51.434;6.786;2022-12-28T09:06:00;6.03;;;2.50;;
36855;SDS011;22788;51.434;6.786;2022-12-28T09:08:27;3.67;;;2.20;;
36855;SDS011;22788;51.434;6.786;2022-12-28T09:10:53;5.17;;;2.17;;
36855;SDS011;22788;51.434;6.786;2022-12-28T09:13:22;3.60;;;2.07;;
36855;SDS011;22788;51.434;6.786;2022-12-28T09:15:55;3.50;;;2.23;;
36855;SDS011;22788;51.434;6.786;2022-12-28T09:18:22;4.10;;;2.63;;
36855;SDS011;22788;51.434;6.786;2022-12-28T09:20:48;5.10;;;2.27;;
36855;SDS011;22788;51.434;6.786;2022-12-28T09:23:14;3.50;;;2.17;;
36855;SDS011;22788;51.434;6.786;2022-12-28T09:25:40;3.57;;;2.20;;
36855;SDS011;22788;51.434;6.786;2022-12-28T09:28:06;3.47;;;2.33;;
36855;SDS011;22788;51.434;6.786;2022-12-28T09:30:32;3.07;;;1.87;;
36855;SDS011;22788;51.434;6.786;2022-12-28T09:32:59;2.70;;;1.90;;
36855;SDS011;22788;51.434;6.786;2022-12-28T09:35:25;2.87;;;2.10;;
36855;SDS011;22788;51.434;6.786;2022-12-28T09:37:51;2.63;;;1.80;;
36855;SDS011;22788;51.434;6.786;2022-12-28T09:40:17;3.80;;;2.03;;
36855;SDS011;22788;51.434;6.786;2022-12-28T09:42:43;4.70;;;1.87;;
36855;SDS011;22788;51.434;6.786;2022-12-28T09:45:09;2.70;;;1.80;;
36855;SDS011;22788;51.434;6.786;2022-12-28T09:47:37;1.90;;;1.63;;
36855;SDS011;22788;51.434;6.786;2022-12-28T09:52:56;5.40;;;1.90;;
36855;SDS011;22788;51.434;6.786;2022-12-28T09:55:33;2.77;;;1.70;;
36855;SDS011;22788;51.434;6.786;2022-12-28T09:58:00;4.77;;;1.60;;
36855;SDS011;22788;51.434;6.786;2022-12-28T10:00:30;2.73;;;1.80;;
36855;SDS011;22788;51.434;6.786;2022-12-28T10:03:04;1.73;;;1.63;;
36855;SDS011;22788;51.434;6.786;2022-12-28T10:05:37;5.53;;;2.00;;
36855;SDS011;22788;51.434;6.786;2022-12-28T10:08:03;1.60;;;1.50;;
36855;SDS011;22788;51.434;6.786;2022-12-28T10:10:29;1.83;;;1.60;;
36855;SDS011;22788;51.434;6.786;2022-12-28T10:12:56;2.03;;;1.60;;
36855;SDS011;22788;51.434;6.786;2022-12-28T10:15:26;5.33;;;2.30;;
36855;SDS011;22788;51.434;6.786;2022-12-28T10:17:52;4.47;;;1.60;;
36855;SDS011;22788;51.434;6.786;2022-12-28T10:20:19;1.97;;;1.77;;
36855;SDS011;22788;51.434;6.786;2022-12-28T10:22:49;3.07;;;1.90;;
36855;SDS011;22788;51.434;6.786;2022-12-28T10:25:17;2.30;;;2.00;;
36855;SDS011;22788;51.434;6.786;2022-12-28T10:27:44;2.13;;;1.93;;
36855;SDS011;22788;51.434;6.786;2022-12-28T10:30:13;2.30;;;1.80;;
36855;SDS011;22788;51.434;6.786;2022-12-28T10:32:47;5.50;;;1.63;;
36855;SDS011;22788;51.434;6.786;2022-12-28T10:35:20;4.37;;;1.83;;
36855;SDS011;22788;51.434;6.786;2022-12-28T10:37:49;2.00;;;1.80;;
36855;SDS011;22788;51.434;6.786;2022-12-28T10:40:19;2.80;;;1.97;;
36855;SDS011;22788;51.434;6.786;2022-12-28T10:42:50;2.73;;;1.70;;
36855;SDS011;22788;51.434;6.786;2022-12-28T10:45:18;2.67;;;1.93;;
36855;SDS011;22788;51.434;6.786;2022-12-28T10:47:47;4.27;;;2.23;;
36855;SDS011;22788;51.434;6.786;2022-12-28T10:53:15;3.45;;;2.65;;
36855;SDS011;22788;51.434;6.786;2022-12-28T10:55:43;4.63;;;2.90;;
36855;SDS011;22788;51.434;6.786;2022-12-28T10:58:18;5.80;;;2.80;;
36855;SDS011;22788;51.434;6.786;2022-12-28T11:00:52;6.53;;;3.00;;
36855;SDS011;22788;51.434;6.786;2022-12-28T11:03:22;9.67;;;2.60;;
36855;SDS011;22788;51.434;6.786;2022-12-28T11:05:59;4.23;;;2.43;;
36855;SDS011;22788;51.434;6.786;2022-12-28T11:08:37;3.67;;;2.90;;
36855;SDS011;22788;51.434;6.786;2022-12-28T11:11:05;3.43;;;2.37;;
36855;SDS011;22788;51.434;6.786;2022-12-28T11:13:32;3.23;;;2.40;;
36855;SDS011;22788;51.434;6.786;2022-12-28T11:15:58;2.40;;;1.77;;
36855;SDS011;22788;51.434;6.786;2022-12-28T11:18:24;4.95;;;2.47;;
36855;SDS011;22788;51.434;6.786;2022-12-28T11:20:52;5.83;;;2.00;;
36855;SDS011;22788;51.434;6.786;2022-12-28T11:23:19;2.73;;;2.07;;
36855;SDS011;22788;51.434;6.786;2022-12-28T11:25:49;2.43;;;2.20;;
36855;SDS011;22788;51.434;6.786;2022-12-28T11:28:16;4.90;;;2.03;;
36855;SDS011;22788;51.434;6.786;2022-12-28T11:30:45;3.53;;;2.20;;
36855;SDS011;22788;51.434;6.786;2022-12-28T11:33:21;3.93;;;1.90;;
36855;SDS011;22788;51.434;6.786;2022-12-28T11:35:51;5.10;;;2.20;;
36855;SDS011;22788;51.434;6.786;2022-12-28T11:38:37;3.20;;;1.73;;
36855;SDS011;22788;51.434;6.786;2022-12-28T11:41:07;3.13;;;2.10;;
36855;SDS011;22788;51.434;6.786;2022-12-28T11:43:35;4.83;;;2.70;;
36855;SDS011;22788;51.434;6.786;2022-12-28T11:46:03;4.27;;;2.50;;
36855;SDS011;22788;51.434;6.786;2022-12-28T11:48:37;2.83;;;2.07;;
36855;SDS011;22788;51.434;6.786;2022-12-28T11:51:13;3.70;;;1.87;;
36855;SDS011;22788;51.434;6.786;2022-12-28T11:53:50;5.17;;;1.90;;
36855;SDS011;22788;51.434;6.786;2022-12-28T11:56:20;2.10;;;1.90;;
36855;SDS011;22788;51.434;6.786;2022-12-28T11:58:59;3.10;;;1.67;;
36855;SDS011;22788;51.434;6.786;2022-12-28T12:01:41;4.40;;;2.17;;
36855;SDS011;22788;51.434;6.786;2022-12-28T12:04:16;5.43;;;2.20;;
36855;SDS011;22788;51.434;6.786;2022-12-28T12:07:06;3.87;;;2.10;;
36855;SDS011;22788;51.434;6.786;2022-12-28T12:12:51;3.70;;;2.03;;
36855;SDS011;22788;51.434;6.786;2022-12-28T12:15:18;1.93;;;1.70;;
36855;SDS011;22788;51.434;6.786;2022-12-28T12:17:47;3.33;;;2.40;;
36855;SDS011;22788;51.434;6.786;2022-12-28T12:20:19;4.63;;;2.60;;
36855;SDS011;22788;51.434;6.786;2022-12-28T12:22:50;3.20;;;2.20;;
36855;SDS011;22788;51.434;6.786;2022-12-28T12:25:21;3.97;;;2.20;;
36855;SDS011;22788;51.434;6.786;2022-12-28T12:27:53;3.23;;;2.10;;
36855;SDS011;22788;51.434;6.786;2022-12-28T12:30:22;5.40;;;2.73;;
36855;SDS011;22788;51.434;6.786;2022-12-28T12:32:51;5.20;;;2.67;;
36855;SDS011;22788;51.434;6.786;2022-12-28T12:35:20;2.53;;;1.93;;
36855;SDS011;22788;51.434;6.786;2022-12-28T12:37:49;4.87;;;2.33;;
36855;SDS011;22788;51.434;6.786;2022-12-28T12:46:22;3.97;;;1.93;;
36855;SDS011;22788;51.434;6.786;2022-12-28T12:49:20;3.40;;;1.53;;
36855;SDS011;22788;51.434;6.786;2022-12-28T12:52:02;3.80;;;1.97;;
36855;SDS011;22788;51.434;6.786;2022-12-28T12:54:36;1.83;;;1.70;;
36855;SDS011;22788;51.434;6.786;2022-12-28T12:57:14;3.10;;;1.97;;
36855;SDS011;22788;51.434;6.786;2022-12-28T13:05:29;2.27;;;1.80;;
36855;SDS011;22788;51.434;6.786;2022-12-28T13:07:56;4.90;;;2.20;;
36855;SDS011;22788;51.434;6.786;2022-12-28T13:10:26;4.50;;;2.07;;
36855;SDS011;22788;51.434;6.786;2022-12-28T13:12:56;4.40;;;1.70;;
36855;SDS011;22788;51.434;6.786;2022-12-28T13:15:25;2.27;;;2.00;;
36855;SDS011;22788;51.434;6.786;2022-12-28T13:17:59;3.03;;;1.70;;
36855;SDS011;22788;51.434;6.786;2022-12-28T13:20:26;1.87;;;1.43;;
36855;SDS011;22788;51.434;6.786;2022-12-28T13:22:53;3.23;;;1.83;;
36855;SDS011;22788;51.434;6.786;2022-12-28T13:25:25;2.23;;;1.40;;
36855;SDS011;22788;51.434;6.786;2022-12-28T13:27:52;1.73;;;1.53;;
36855;SDS011;22788;51.434;6.786;2022-12-28T13:30:19;1.87;;;1.60;;
36855;SDS011;22788;51.434;6.786;2022-12-28T13:32:50;2.00;;;1.50;;
36855;SDS011;22788;51.434;6.786;2022-12-28T13:35:17;2.33;;;1.63;;
36855;SDS011;22788;51.434;6.786;2022-12-28T13:37:58;2.37;;;1.57;;
36855;SDS011;22788;51.434;6.786;2022-12-28T13:40:25;3.20;;;1.43;;
36855;SDS011;22788;51.434;6.786;2022-12-28T13:42:53;1.93;;;1.50;;
36855;SDS011;22788;51.434;6.786;2022-12-28T13:45:27;3.10;;;1.30;;
36855;SDS011;22788;51.434;6.786;2022-12-28T13:47:55;2.00;;;1.60;;
36855;SDS011;22788;51.434;6.786;2022-12-28T13:50:22;3.50;;;1.57;;
36855;SDS011;22788;51.434;6.786;2022-12-28T13:52:52;2.10;;;1.67;;
36855;SDS011;22788;51.434;6.786;2022-12-28T13:55:21;3.63;;;1.97;;
36855;SDS011;22788;51.434;6.786;2022-12-28T13:57:52;1.63;;;1.30;;
36855;SDS011;22788;51.434;6.786;2022-12-28T14:00:22;1.53;;;1.30;;
36855;SDS011;22788;51.434;6.786;2022-12-28T14:02:48;3.47;;;1.90;;
36855;SDS011;22788;51.434;6.786;2022-12-28T14:05:19;2.67;;;1.60;;
36855;SDS011;22788;51.434;6.786;2022-12-28T14:07:48;1.57;;;1.47;;
36855;SDS011;22788;51.434;6.786;2022-12-28T14:10:16;1.80;;;1.30;;
36855;SDS011;22788;51.434;6.786;2022-12-28T14:12:42;1.60;;;1.30;;
36855;SDS011;22788;51.434;6.786;2022-12-28T14:15:10;2.33;;;1.83;;
36855;SDS011;22788;51.434;6.786;2022-12-28T14:17:37;2.13;;;1.23;;
36855;SDS011;22788;51.434;6.786;2022-12-28T14:20:05;1.60;;;1.30;;
36855;SDS011;22788;51.434;6.786;2022-12-28T14:22:35;4.03;;;1.83;;
36855;SDS011;22788;51.434;6.786;2022-12-28T14:25:03;2.50;;;1.40;;
36855;SDS011;22788;51.434;6.786;2022-12-28T14:27:31;2.33;;;1.63;;
36855;SDS011;22788;51.434;6.786;2022-12-28T14:30:01;2.70;;;1.50;;
36855;SDS011;22788;51.434;6.786;2022-12-28T14:32:27;1.90;;;1.60;;
36855;SDS011;22788;51.434;6.786;2022-12-28T14:34:57;3.23;;;1.80;;
36855;SDS011;22788;51.434;6.786;2022-12-28T14:37:25;2.33;;;1.70;;
36855;SDS011;22788;51.434;6.786;2022-12-28T14:39:58;4.83;;;1.93;;
36855;SDS011;22788;51.434;6.786;2022-12-28T14:42:25;3.40;;;1.67;;
36855;SDS011;22788;51.434;6.786;2022-12-28T14:44:52;3.37;;;1.70;;
36855;SDS011;22788;51.434;6.786;2022-12-28T14:47:31;4.07;;;1.70;;
36855;SDS011;22788;51.434;6.786;2022-12-28T14:49:58;2.23;;;1.53;;
36855;SDS011;22788;51.434;6.786;2022-12-28T14:52:35;3.07;;;2.13;;
36855;SDS011;22788;51.434;6.786;2022-12-28T14:55:20;2.70;;;1.63;;
36855;SDS011;22788;51.434;6.786;2022-12-28T14:57:48;1.80;;;1.67;;
36855;SDS011;22788;51.434;6.786;2022-12-28T15:00:20;4.40;;;1.60;;
36855;SDS011;22788;51.434;6.786;2022-12-28T15:02:49;3.33;;;1.57;;
36855;SDS011;22788;51.434;6.786;2022-12-28T15:05:34;2.10;;;1.90;;
36855;SDS011;22788;51.434;6.786;2022-12-28T15:08:02;3.70;;;1.60;;
36855;SDS011;22788;51.434;6.786;2022-12-28T15:10:30;4.07;;;1.63;;
36855;SDS011;22788;51.434;6.786;2022-12-28T15:12:59;3.80;;;1.40;;
36855;SDS011;22788;51.434;6.786;2022-12-28T15:15:25;1.70;;;1.60;;
36855;SDS011;22788;51.434;6.786;2022-12-28T15:17:51;2.70;;;1.50;;
36855;SDS011;22788;51.434;6.786;2022-12-28T15:20:17;2.20;;;1.53;;
36855;SDS011;22788;51.434;6.786;2022-12-28T15:22:43;2.40;;;1.43;;
36855;SDS011;22788;51.434;6.786;2022-12-28T15:25:12;3.47;;;1.70;;